Time;durP1;ratioP1;P1;durP2;ratioP2;P2;SDS_P1;SDS_P2;PMS_P1;PMS_P2;Temp;Humidity;BMP_temperature;BMP_pressure;BME280_temperature;BME280_humidity;BME280_pressure;Samples;Min_cycle;Max_cycle;Signal;HPM_P1;HPM_P2
2021/12/23 00:00:39;;;;;;;83.60;44.83;;;;;;;-4.48;80.79;100865.13;5050758;28;20457;-80
2021/12/23 00:03:05;;;;;;;76.10;43.10;;;;;;;-4.44;80.79;100866.53;5039178;28;20488;-80
2021/12/23 00:05:30;;;;;;;87.07;45.22;;;;;;;-4.44;80.29;100860.38;5049232;28;20411;-80
2021/12/23 00:07:55;;;;;;;81.13;44.83;;;;;;;-4.44;80.22;100865.69;5043073;28;20498;-80
2021/12/23 00:10:21;;;;;;;76.65;42.13;;;;;;;-4.47;80.05;100865.97;5051805;28;21044;-80
2021/12/23 00:12:46;;;;;;;78.57;43.55;;;;;;;-4.51;80.49;100860.09;5047566;28;20381;-80
2021/12/23 00:15:30;;;;;;;73.07;42.17;;;;;;;-4.50;79.94;100845.06;5049044;28;20408;-80
2021/12/23 00:25:34;;;;;;;64.82;37.78;;;;;;;-4.49;79.35;100831.72;5051577;28;20385;-80
2021/12/23 00:28:00;;;;;;;66.00;38.17;;;;;;;-4.49;79.34;100821.16;5051115;28;20389;-80
2021/12/23 00:30:25;;;;;;;61.10;36.87;;;;;;;-4.48;79.18;100817.50;5052587;28;20488;-81
2021/12/23 00:32:51;;;;;;;61.40;36.85;;;;;;;-4.48;79.10;100816.69;5047852;28;20453;-80
2021/12/23 00:35:16;;;;;;;62.05;37.35;;;;;;;-4.46;79.70;100820.88;5053879;28;20484;-80
2021/12/23 00:37:45;;;;;;;63.13;37.43;;;;;;;-4.42;79.04;100806.38;5051129;28;20405;-81
2021/12/23 00:40:13;;;;;;;63.55;36.28;;;;;;;-4.34;79.09;100801.22;5051790;28;20401;-81
2021/12/23 00:42:39;;;;;;;57.30;33.17;;;;;;;-4.27;78.51;100791.75;5046986;28;20454;-81
2021/12/23 00:45:05;;;;;;;56.85;33.75;;;;;;;-4.31;78.41;100789.50;5047983;28;20770;-80
2021/12/23 00:47:30;;;;;;;55.17;33.45;;;;;;;-4.25;78.30;100792.41;5039566;28;20407;-81
2021/12/23 00:49:57;;;;;;;55.80;34.40;;;;;;;-4.22;78.12;100783.38;5049947;28;20404;-81
2021/12/23 00:52:35;;;;;;;58.70;34.42;;;;;;;-4.21;78.07;100779.75;5053745;28;20451;-81
2021/12/23 00:55:01;;;;;;;63.33;35.10;;;;;;;-4.14;77.12;100780.00;5052038;28;20408;-81
2021/12/23 00:57:29;;;;;;;55.90;31.92;;;;;;;-4.14;77.16;100780.00;5039788;28;20419;-80
2021/12/23 00:59:56;;;;;;;51.97;32.72;;;;;;;-4.12;78.19;100784.22;5047720;28;20888;-80
2021/12/23 01:02:25;;;;;;;54.40;33.63;;;;;;;-4.12;78.18;100770.13;5051832;28;20401;-80
2021/12/23 01:04:51;;;;;;;51.75;30.73;;;;;;;-4.09;78.47;100772.50;5050860;28;20940;-80
2021/12/23 01:07:16;;;;;;;48.05;31.08;;;;;;;-4.08;78.83;100759.09;5051961;28;20466;-80
2021/12/23 01:09:42;;;;;;;54.75;33.53;;;;;;;-4.04;79.32;100765.78;5052114;28;20397;-80
2021/12/23 01:12:10;;;;;;;56.55;34.70;;;;;;;-3.99;79.26;100766.19;5043434;28;20422;-80
2021/12/23 01:15:40;;;;;;;56.83;33.33;;;;;;;-3.95;79.92;100751.66;5047189;28;20582;-81
2021/12/23 01:17:42;;;;;;;59.72;33.53;;;;;;;-4.04;80.53;100764.94;5031461;28;20414;-81
2021/12/23 01:20:10;;;;;;;57.05;34.30;;;;;;;-4.23;81.98;100760.53;5048178;28;20916;-80
2021/12/23 01:22:37;;;;;;;55.40;33.72;;;;;;;-4.32;82.68;100761.41;5052928;28;20394;-80
2021/12/23 01:25:02;;;;;;;56.25;33.22;;;;;;;-4.27;83.24;100760.00;5050681;28;20409;-80
2021/12/23 01:27:27;;;;;;;59.93;34.97;;;;;;;-4.39;83.72;100749.72;5045206;28;20772;-80
2021/12/23 01:29:53;;;;;;;55.93;32.87;;;;;;;-4.20;82.93;100761.09;5045262;28;20909;-79
2021/12/23 01:32:18;;;;;;;53.70;32.60;;;;;;;-4.24;83.31;100758.84;5048177;28;20408;-80
2021/12/23 01:34:43;;;;;;;58.03;34.07;;;;;;;-4.10;82.81;100749.63;5040715;28;20417;-81
2021/12/23 01:37:09;;;;;;;54.20;32.20;;;;;;;-3.99;82.29;100744.19;5049394;28;20554;-80
2021/12/23 01:39:34;;;;;;;61.80;33.97;;;;;;;-4.01;82.07;100741.66;5047415;28;20425;-80
2021/12/23 01:41:59;;;;;;;53.90;32.77;;;;;;;-4.00;82.25;100734.56;5038025;28;20421;-80
2021/12/23 01:44:25;;;;;;;61.27;34.97;;;;;;;-3.98;81.92;100748.47;5049981;28;20417;-80
2021/12/23 01:46:50;;;;;;;63.27;36.77;;;;;;;-3.98;81.73;100749.31;5048255;28;20444;-80
2021/12/23 01:49:15;;;;;;;59.93;35.23;;;;;;;-3.97;81.92;100753.63;5050865;28;20477;-80
2021/12/23 01:51:41;;;;;;;63.47;35.28;;;;;;;-3.96;81.97;100747.38;5043552;28;20475;-81
2021/12/23 01:54:07;;;;;;;63.77;36.20;;;;;;;-3.93;81.53;100736.50;5050052;28;20398;-80
2021/12/23 01:56:32;;;;;;;63.70;35.33;;;;;;;-3.92;82.28;100727.56;5043524;28;20429;-81
2021/12/23 01:58:57;;;;;;;57.63;34.83;;;;;;;-3.90;82.24;100727.41;5047407;28;20394;-81
2021/12/23 02:01:23;;;;;;;56.43;33.97;;;;;;;-3.89;82.20;100734.41;5052333;28;20476;-80
2021/12/23 02:03:49;;;;;;;61.00;35.40;;;;;;;-3.88;81.40;100736.03;5048833;28;20414;-80
2021/12/23 02:06:15;;;;;;;55.33;33.97;;;;;;;-3.92;81.89;100729.41;5043444;28;20455;-80
2021/12/23 02:08:42;;;;;;;57.05;34.00;;;;;;;-4.18;82.74;100723.88;5034094;28;20415;-80
2021/12/23 02:11:10;;;;;;;55.92;35.15;;;;;;;-4.20;83.64;100734.63;5045105;28;20401;-81
2021/12/23 02:13:37;;;;;;;53.97;34.33;;;;;;;-4.05;82.86;100734.19;5049803;28;20460;-80
2021/12/23 02:16:04;;;;;;;56.60;34.03;;;;;;;-3.96;82.81;100726.19;5051798;28;20402;-80
2021/12/23 02:18:30;;;;;;;58.53;34.70;;;;;;;-3.84;82.41;100721.53;5043001;28;20506;-80
2021/12/23 02:20:57;;;;;;;58.17;34.60;;;;;;;-3.76;82.29;100717.19;5049472;28;20480;-80
2021/12/23 02:23:23;;;;;;;60.08;35.17;;;;;;;-3.72;82.08;100720.34;5046291;28;20475;-80
2021/12/23 02:25:49;;;;;;;61.35;36.45;;;;;;;-3.71;82.09;100714.09;5050933;28;20468;-80
2021/12/23 02:28:19;;;;;;;66.77;37.70;;;;;;;-3.65;82.01;100710.84;5053060;28;20514;-80
2021/12/23 02:30:51;;;;;;;68.73;38.40;;;;;;;-3.62;81.82;100705.25;5049136;28;20943;-80
2021/12/23 02:33:17;;;;;;;64.97;37.63;;;;;;;-3.63;82.19;100714.19;5049171;28;20417;-79
2021/12/23 02:35:42;;;;;;;63.47;35.92;;;;;;;-3.59;82.47;100717.38;5048243;28;20398;-80
2021/12/23 02:38:08;;;;;;;58.37;34.50;;;;;;;-3.57;82.27;100710.97;5047111;28;20409;-80
2021/12/23 02:40:43;;;;;;;56.25;33.72;;;;;;;-3.58;81.93;100697.84;5046537;28;20485;-80
2021/12/23 02:43:14;;;;;;;58.80;34.40;;;;;;;-3.62;81.33;100705.25;5045344;28;20419;-80
2021/12/23 02:45:42;;;;;;;71.22;38.97;;;;;;;-3.86;82.43;100711.09;5042513;28;20410;-79
2021/12/23 02:48:16;;;;;;;80.03;41.53;;;;;;;-3.98;83.36;100706.13;5037178;28;20409;-80
2021/12/23 02:50:43;;;;;;;88.18;46.80;;;;;;;-3.93;83.55;100690.66;5042329;28;20405;-80
2021/12/23 02:53:09;;;;;;;64.57;37.35;;;;;;;-3.80;83.07;100684.03;5047106;28;20416;-80
2021/12/23 02:55:35;;;;;;;62.77;35.77;;;;;;;-3.74;82.82;100674.66;5049967;28;20401;-80
2021/12/23 02:58:00;;;;;;;64.07;36.33;;;;;;;-3.74;82.65;100686.09;5044687;28;22212;-80
2021/12/23 03:00:25;;;;;;;69.97;36.80;;;;;;;-3.75;82.18;100686.22;5049047;28;20412;-80
2021/12/23 03:02:50;;;;;;;75.97;40.83;;;;;;;-3.90;82.56;100679.78;5059604;28;20489;-80
2021/12/23 03:05:16;;;;;;;75.93;39.80;;;;;;;-3.93;82.45;100678.25;5062995;28;20409;-80
2021/12/23 03:07:41;;;;;;;78.22;39.38;;;;;;;-3.85;82.25;100666.91;5048460;28;20413;-80
2021/12/23 03:10:08;;;;;;;85.67;44.40;;;;;;;-4.03;82.36;100669.53;5047787;28;20527;-80
2021/12/23 03:12:34;;;;;;;88.25;42.38;;;;;;;-4.11;83.64;100661.47;5040496;28;20421;-79
2021/12/23 03:15:00;;;;;;;86.57;42.50;;;;;;;-3.95;83.22;100645.78;5049216;28;20488;-79
2021/12/23 03:17:26;;;;;;;89.55;44.38;;;;;;;-3.86;83.16;100652.03;5041409;28;20486;-80
2021/12/23 03:19:51;;;;;;;85.00;41.83;;;;;;;-3.77;83.00;100645.84;5051008;28;20849;-80
2021/12/23 03:22:16;;;;;;;85.63;42.70;;;;;;;-3.78;82.28;100650.28;5038405;28;20391;-80
2021/12/23 03:24:42;;;;;;;84.30;44.17;;;;;;;-3.84;83.15;100645.59;5038571;28;20415;-80
2021/12/23 03:27:07;;;;;;;83.63;42.83;;;;;;;-3.76;83.22;100636.91;5048252;28;20589;-80
2021/12/23 03:29:32;;;;;;;83.70;42.13;;;;;;;-3.68;82.72;100637.00;5048762;28;20432;-80
2021/12/23 03:31:58;;;;;;;79.73;41.43;;;;;;;-3.66;83.09;100640.34;5048905;28;20402;-80
2021/12/23 03:34:23;;;;;;;88.30;41.13;;;;;;;-3.72;83.10;100651.50;5051085;28;20405;-80
2021/12/23 03:36:49;;;;;;;83.30;41.30;;;;;;;-3.73;83.45;100637.47;5035902;28;20413;-84
2021/12/23 03:39:15;;;;;;;67.23;36.70;;;;;;;-3.70;83.63;100639.81;5048543;28;20413;-80
2021/12/23 03:41:40;;;;;;;77.47;39.80;;;;;;;-3.80;83.60;100633.72;5049921;28;20413;-80
2021/12/23 03:44:05;;;;;;;70.72;39.17;;;;;;;-3.73;84.17;100633.97;5047803;28;20412;-80
2021/12/23 03:46:31;;;;;;;75.60;40.75;;;;;;;-3.68;84.07;100629.88;5050738;28;20416;-80
2021/12/23 03:48:56;;;;;;;72.80;39.40;;;;;;;-3.68;83.28;100629.03;5069654;28;20400;-79
2021/12/23 03:51:21;;;;;;;75.00;39.13;;;;;;;-3.81;83.74;100629.41;5048841;28;20409;-79
2021/12/23 03:53:47;;;;;;;69.00;38.47;;;;;;;-3.83;83.58;100628.72;5067979;28;20393;-79
2021/12/23 03:56:14;;;;;;;72.40;37.13;;;;;;;-3.81;84.29;100617.97;5047887;28;20486;-80
2021/12/23 03:58:39;;;;;;;74.15;38.42;;;;;;;-3.78;84.05;100618.53;5053779;28;20391;-80
2021/12/23 04:01:05;;;;;;;75.80;39.00;;;;;;;-3.75;83.52;100615.56;5054195;28;20417;-79
2021/12/23 04:03:31;;;;;;;80.18;41.15;;;;;;;-3.77;83.86;100622.84;5047878;28;20405;-80
2021/12/23 04:05:56;;;;;;;70.77;37.57;;;;;;;-3.78;83.50;100621.16;5051902;28;20405;-79
2021/12/23 04:08:21;;;;;;;71.60;37.60;;;;;;;-3.95;84.06;100611.38;5050020;28;20407;-79
2021/12/23 04:10:47;;;;;;;70.90;38.97;;;;;;;-3.91;84.12;100602.16;5068908;28;20393;-79
2021/12/23 04:13:12;;;;;;;75.93;39.33;;;;;;;-3.86;83.99;100609.66;5050851;28;20465;-80
2021/12/23 04:15:37;;;;;;;75.77;39.10;;;;;;;-3.86;83.76;100604.38;5049338;28;20412;-80
2021/12/23 04:18:04;;;;;;;72.97;39.60;;;;;;;-3.95;83.88;100607.91;5044594;28;20401;-80
2021/12/23 04:20:35;;;;;;;72.13;38.90;;;;;;;-4.04;84.37;100617.56;5043236;28;20383;-80
2021/12/23 04:23:03;;;;;;;73.50;38.40;;;;;;;-4.08;84.78;100604.78;5052090;28;20467;-80
2021/12/23 04:25:28;;;;;;;70.03;37.53;;;;;;;-4.11;84.85;100605.88;5047058;28;20484;-79
2021/12/23 04:27:58;;;;;;;68.67;37.67;;;;;;;-4.09;85.15;100598.66;5053559;28;20504;-80
2021/12/23 04:30:24;;;;;;;69.63;37.25;;;;;;;-4.05;84.61;100602.66;5053862;28;20389;-80
2021/12/23 04:32:50;;;;;;;68.07;38.77;;;;;;;-4.04;84.30;100599.03;5052351;28;20433;-80
2021/12/23 04:35:15;;;;;;;66.00;36.90;;;;;;;-4.04;85.07;100595.53;5050471;28;20772;-80
2021/12/23 04:37:41;;;;;;;65.07;35.75;;;;;;;-3.97;84.88;100601.91;5052648;28;20396;-80
2021/12/23 04:40:09;;;;;;;70.45;38.20;;;;;;;-3.91;84.63;100588.09;5046227;28;20493;-80
2021/12/23 04:42:35;;;;;;;69.32;38.53;;;;;;;-3.84;84.39;100583.84;5050486;28;20413;-80
2021/12/23 04:45:01;;;;;;;73.40;39.25;;;;;;;-3.88;84.46;100577.19;5053214;28;20924;-79
2021/12/23 04:47:27;;;;;;;77.07;38.47;;;;;;;-3.89;84.68;100575.53;5045662;28;20426;-80
2021/12/23 04:49:53;;;;;;;74.65;39.10;;;;;;;-3.90;84.61;100568.56;5051107;28;20502;-80
2021/12/23 04:52:18;;;;;;;74.70;39.97;;;;;;;-3.91;84.29;100578.31;5053767;28;20393;-80
2021/12/23 04:54:43;;;;;;;71.23;38.80;;;;;;;-3.89;85.20;100575.53;5043584;28;20413;-79
2021/12/23 04:57:09;;;;;;;78.57;39.73;;;;;;;-3.85;84.60;100583.03;5043345;28;20413;-79
2021/12/23 04:59:35;;;;;;;77.50;40.33;;;;;;;-3.81;84.89;100571.16;5050092;28;20413;-80
2021/12/23 05:02:00;;;;;;;73.20;39.53;;;;;;;-3.72;84.19;100566.75;5042966;28;20490;-80
2021/12/23 05:04:26;;;;;;;68.13;38.33;;;;;;;-3.72;84.05;100557.00;5043524;28;20773;-79
2021/12/23 05:06:51;;;;;;;65.57;36.13;;;;;;;-3.71;84.38;100553.38;5053164;28;20496;-79
2021/12/23 05:09:16;;;;;;;72.70;40.47;;;;;;;-3.71;84.19;100549.91;5049738;28;20393;-80
2021/12/23 05:11:44;;;;;;;73.67;39.97;;;;;;;-3.71;83.81;100540.16;5044878;28;20766;-80
2021/12/23 05:14:09;;;;;;;72.45;38.90;;;;;;;-3.74;83.87;100543.09;5047776;28;20848;-79
2021/12/23 05:16:34;;;;;;;71.50;38.23;;;;;;;-3.70;83.25;100533.88;5049891;28;20564;-79
2021/12/23 05:19:00;;;;;;;74.15;41.00;;;;;;;-3.68;83.63;100539.00;5050508;28;20407;-79
2021/12/23 05:21:25;;;;;;;68.03;37.50;;;;;;;-3.64;82.97;100536.88;5051901;28;20405;-80
2021/12/23 05:23:50;;;;;;;62.17;36.17;;;;;;;-3.71;82.77;100532.19;5046711;28;20888;-80
2021/12/23 05:26:15;;;;;;;65.13;36.23;;;;;;;-3.77;83.16;100529.31;5048135;28;20445;-79
2021/12/23 05:28:41;;;;;;;67.37;37.20;;;;;;;-3.79;83.42;100518.88;5048670;28;20768;-80
2021/12/23 05:31:06;;;;;;;63.65;36.55;;;;;;;-3.74;83.23;100518.44;5048101;28;20418;-80
2021/12/23 05:33:32;;;;;;;65.10;36.70;;;;;;;-3.76;83.01;100517.75;5047503;28;20387;-80
2021/12/23 05:35:57;;;;;;;65.68;37.70;;;;;;;-3.72;83.13;100521.75;5043342;28;20408;-80
2021/12/23 05:38:24;;;;;;;65.00;37.42;;;;;;;-3.72;83.10;100530.53;5052037;28;20405;-80
2021/12/23 05:40:50;;;;;;;68.63;41.25;;;;;;;-3.73;82.79;100528.88;5047681;28;20784;-80
2021/12/23 05:43:15;;;;;;;65.40;39.42;;;;;;;-3.72;82.77;100532.34;5039228;28;20423;-80
2021/12/23 05:45:40;;;;;;;63.30;39.00;;;;;;;-3.70;83.45;100543.63;5044351;28;20413;-80
2021/12/23 05:48:06;;;;;;;66.57;38.83;;;;;;;-3.74;83.01;100542.25;5046125;28;20532;-80
2021/12/23 05:50:31;;;;;;;61.72;36.80;;;;;;;-3.78;83.38;100528.50;5048747;28;20746;-80
2021/12/23 05:52:56;;;;;;;68.78;38.55;;;;;;;-3.77;83.19;100510.78;5049979;28;20505;-80
2021/12/23 05:55:22;;;;;;;68.57;39.77;;;;;;;-3.78;83.26;100506.47;5051157;28;20401;-80
2021/12/23 05:57:47;;;;;;;63.77;37.40;;;;;;;-3.76;82.82;100509.81;5052468;28;20404;-80
2021/12/23 06:00:19;;;;;;;64.80;36.93;;;;;;;-3.81;83.67;100530.59;5042809;28;20413;-80
2021/12/23 06:02:45;;;;;;;66.25;38.38;;;;;;;-3.79;83.43;100533.94;5039994;28;20496;-80
2021/12/23 06:05:11;;;;;;;65.30;36.83;;;;;;;-3.75;83.52;100525.53;5049130;28;20402;-80
2021/12/23 06:07:36;;;;;;;66.37;37.57;;;;;;;-3.71;83.28;100526.06;5050028;28;20800;-80
2021/12/23 06:10:03;;;;;;;66.07;38.07;;;;;;;-3.72;82.76;100514.63;5050721;28;20807;-80
2021/12/23 06:12:28;;;;;;;67.33;38.43;;;;;;;-3.71;82.92;100512.81;5047863;28;20443;-80
2021/12/23 06:14:54;;;;;;;64.43;37.67;;;;;;;-3.70;82.77;100506.56;5043181;28;20413;-80
2021/12/23 06:17:19;;;;;;;71.33;39.33;;;;;;;-3.69;83.55;100505.59;5041707;28;20409;-80
2021/12/23 06:19:44;;;;;;;79.53;43.13;;;;;;;-3.64;83.03;100499.81;5051904;28;20401;-79
2021/12/23 06:22:12;;;;;;;68.40;39.23;;;;;;;-3.73;83.09;100498.91;5045251;28;20409;-80
2021/12/23 06:24:39;;;;;;;67.47;39.50;;;;;;;-3.80;83.46;100505.81;5040692;28;20846;-80
2021/12/23 06:27:07;;;;;;;70.07;39.25;;;;;;;-3.75;82.90;100498.22;5047809;28;20484;-80
2021/12/23 06:29:35;;;;;;;68.03;38.38;;;;;;;-3.77;82.55;100506.34;5051829;28;20427;-80
2021/12/23 06:32:01;;;;;;;68.15;38.20;;;;;;;-3.81;82.16;100501.47;5047639;28;20442;-79
2021/12/23 06:34:26;;;;;;;69.33;40.33;;;;;;;-3.85;82.63;100500.09;5042111;28;20906;-80
2021/12/23 06:36:51;;;;;;;69.70;39.97;;;;;;;-3.89;82.28;100506.72;5046289;28;20792;-80
2021/12/23 06:39:17;;;;;;;66.13;39.40;;;;;;;-3.93;82.56;100510.63;5045492;28;20391;-79
2021/12/23 06:41:42;;;;;;;66.97;38.93;;;;;;;-3.92;82.53;100510.47;5038435;28;20414;-79
2021/12/23 06:44:08;;;;;;;64.27;36.23;;;;;;;-3.89;82.30;100510.19;5042785;28;20886;-80
2021/12/23 06:46:33;;;;;;;66.53;37.37;;;;;;;-3.87;82.73;100494.16;5040611;28;20786;-80
2021/12/23 06:48:58;;;;;;;63.10;35.80;;;;;;;-3.80;82.34;100485.44;5041799;28;20480;-81
2021/12/23 06:51:27;;;;;;;64.03;35.17;;;;;;;-3.90;82.22;100479.41;5046477;28;20425;-79
2021/12/23 06:53:52;;;;;;;59.38;35.22;;;;;;;-3.87;82.50;100487.03;5028932;28;20406;-79
2021/12/23 06:56:18;;;;;;;58.67;36.50;;;;;;;-3.86;83.02;100486.06;5050186;28;21002;-80
2021/12/23 06:58:48;;;;;;;55.55;33.15;;;;;;;-3.83;82.62;100472.53;5041333;28;20403;-80
2021/12/23 07:01:17;;;;;;;59.10;32.47;;;;;;;-3.80;82.82;100479.31;5039297;28;20420;-79
2021/12/23 07:04:04;;;;;;;55.50;32.05;;;;;;;-3.79;82.25;100487.09;5040786;28;20936;-80
2021/12/23 07:06:31;;;;;;;46.55;29.48;;;;;;;-3.80;82.29;100487.25;5036498;28;20749;-80
2021/12/23 07:08:56;;;;;;;53.30;29.92;;;;;;;-3.86;82.50;100498.47;5041061;28;20409;-79
2021/12/23 07:11:21;;;;;;;48.90;28.83;;;;;;;-3.91;83.15;100493.63;5038400;28;20417;-80
2021/12/23 07:13:47;;;;;;;49.58;29.92;;;;;;;-3.89;82.62;100481.06;5039150;28;20448;-78
2021/12/23 07:16:12;;;;;;;47.77;28.50;;;;;;;-3.87;82.58;100475.63;5056304;28;20408;-79
2021/12/23 07:18:38;;;;;;;54.17;30.30;;;;;;;-3.88;82.72;100484.53;5037456;28;20426;-78
2021/12/23 07:21:03;;;;;;;44.83;25.47;;;;;;;-3.91;82.81;100498.06;5049911;28;20397;-80
2021/12/23 07:23:28;;;;;;;46.37;27.57;;;;;;;-3.97;83.11;100499.53;5044319;28;20895;-79
2021/12/23 07:25:54;;;;;;;51.97;30.17;;;;;;;-4.01;82.92;100489.38;5039801;28;20444;-79
2021/12/23 07:28:19;;;;;;;48.33;27.30;;;;;;;-3.93;83.08;100477.06;5038757;28;20417;-80
2021/12/23 07:30:44;;;;;;;50.37;30.27;;;;;;;-3.79;82.63;100467.75;5046815;28;20413;-80
2021/12/23 07:33:09;;;;;;;48.90;30.00;;;;;;;-3.77;82.51;100479.00;5048584;28;20543;-80
2021/12/23 07:35:35;;;;;;;47.00;29.37;;;;;;;-3.74;82.38;100478.72;5034830;28;20420;-79
2021/12/23 07:38:02;;;;;;;48.23;31.00;;;;;;;-3.68;82.52;100462.19;5039095;28;20411;-80
2021/12/23 07:40:31;;;;;;;40.08;25.45;;;;;;;-3.57;81.74;100448.72;5037902;28;20908;-80
2021/12/23 07:43:08;;;;;;;45.45;27.58;;;;;;;-3.55;81.65;100453.84;5043288;28;20403;-79
2021/12/23 07:45:33;;;;;;;42.75;24.45;;;;;;;-3.53;80.91;100465.16;5038719;28;20469;-78
2021/12/23 07:47:59;;;;;;;43.90;26.67;;;;;;;-3.51;81.10;100473.75;5045179;28;20788;-80
2021/12/23 07:50:25;;;;;;;42.65;25.75;;;;;;;-3.49;81.24;100469.16;5046220;28;20412;-79
2021/12/23 07:52:50;;;;;;;41.35;25.58;;;;;;;-3.46;80.75;100459.09;5038867;28;20457;-80
2021/12/23 07:55:16;;;;;;;40.37;25.03;;;;;;;-3.42;81.15;100463.06;5033432;28;20443;-79
2021/12/23 07:57:41;;;;;;;39.73;25.80;;;;;;;-3.37;81.02;100460.78;5037150;28;20884;-79
2021/12/23 08:00:08;;;;;;;40.07;24.87;;;;;;;-3.33;80.67;100459.50;5037706;28;20531;-78
2021/12/23 08:02:33;;;;;;;39.88;23.80;;;;;;;-3.29;80.54;100467.94;5035451;28;20434;-81
2021/12/23 08:04:59;;;;;;;44.00;25.70;;;;;;;-3.24;80.59;100476.28;5044914;28;20456;-81
2021/12/23 08:07:25;;;;;;;39.85;24.85;;;;;;;-3.20;80.24;100478.47;5049797;28;20397;-81
2021/12/23 08:09:50;;;;;;;36.72;23.52;;;;;;;-3.18;79.85;100473.84;5044822;28;20404;-81
2021/12/23 08:12:15;;;;;;;39.77;24.13;;;;;;;-3.17;80.16;100483.47;5045396;28;20904;-80
2021/12/23 08:14:40;;;;;;;41.33;25.67;;;;;;;-3.16;79.79;100465.72;5049848;28;20424;-81
2021/12/23 08:17:06;;;;;;;37.17;24.83;;;;;;;-3.13;80.13;100465.41;5045550;28;20413;-81
2021/12/23 08:19:31;;;;;;;39.53;25.43;;;;;;;-3.10;79.62;100457.16;5047819;28;20416;-81
2021/12/23 08:21:56;;;;;;;41.00;26.00;;;;;;;-3.08;79.63;100446.38;5049283;28;20397;-81
2021/12/23 08:24:21;;;;;;;40.77;26.03;;;;;;;-3.03;79.78;100442.25;5045709;28;20437;-81
2021/12/23 08:26:52;;;;;;;35.87;24.20;;;;;;;-2.94;79.61;100446.63;5047271;28;20758;-81
2021/12/23 08:29:19;;;;;;;43.10;25.50;;;;;;;-2.85;79.74;100453.63;5050066;28;20454;-81
2021/12/23 08:31:46;;;;;;;38.72;24.13;;;;;;;-2.80;79.58;100453.97;5054128;28;20471;-81
2021/12/23 08:34:12;;;;;;;38.13;24.98;;;;;;;-2.73;79.89;100448.84;5046225;28;20407;-81
2021/12/23 08:36:37;;;;;;;38.95;24.77;;;;;;;-2.69;79.74;100442.25;5039076;28;20809;-81
2021/12/23 08:39:02;;;;;;;35.75;22.52;;;;;;;-2.63;79.69;100433.66;5041920;28;20389;-82
2021/12/23 08:41:28;;;;;;;36.60;22.27;;;;;;;-2.59;79.83;100431.50;5035807;28;20422;-81
2021/12/23 08:43:53;;;;;;;35.85;23.42;;;;;;;-2.56;79.81;100426.72;5032551;28;20485;-81
2021/12/23 08:46:19;;;;;;;34.70;23.17;;;;;;;-2.51;79.76;100426.22;5038780;28;20402;-82
2021/12/23 08:48:44;;;;;;;41.45;23.65;;;;;;;-2.49;79.85;100418.94;5041102;28;20854;-82
2021/12/23 08:51:09;;;;;;;36.33;22.53;;;;;;;-2.48;80.38;100436.53;5046722;28;20895;-81
2021/12/23 08:53:35;;;;;;;39.50;23.87;;;;;;;-2.44;80.84;100417.47;5035343;28;20452;-78
2021/12/23 08:56:00;;;;;;;41.07;24.50;;;;;;;-2.40;80.75;100420.59;5046809;28;20401;-80
2021/12/23 08:58:25;;;;;;;39.55;25.10;;;;;;;-2.35;81.42;100424.44;5050343;28;20400;-81
2021/12/23 09:00:51;;;;;;;40.78;24.75;;;;;;;-2.32;80.99;100421.47;5065594;28;20397;-81
2021/12/23 09:03:16;;;;;;;46.70;27.23;;;;;;;-2.33;81.33;100421.63;5045723;28;20969;-81
2021/12/23 09:05:42;;;;;;;47.70;29.63;;;;;;;-2.19;81.59;100413.88;5046733;28;20397;-80
2021/12/23 09:08:09;;;;;;;46.93;29.30;;;;;;;-2.03;80.88;100421.00;5043005;28;20538;-80
2021/12/23 09:10:34;;;;;;;53.03;29.70;;;;;;;-1.91;80.93;100419.66;5048401;28;20481;-81
2021/12/23 09:13:00;;;;;;;49.17;29.77;;;;;;;-1.82;80.21;100420.53;5049028;28;20481;-82
2021/12/23 09:15:26;;;;;;;56.73;32.07;;;;;;;-1.76;80.60;100420.69;5045051;28;20403;-81
2021/12/23 09:17:51;;;;;;;51.23;30.77;;;;;;;-1.61;79.86;100415.50;5047616;28;20409;-81
2021/12/23 09:20:20;;;;;;;53.33;30.53;;;;;;;-1.52;79.90;100416.34;5044969;28;20401;-82
2021/12/23 09:22:47;;;;;;;66.82;36.20;;;;;;;-1.53;80.20;100409.38;5043505;28;20636;-81
2021/12/23 09:25:23;;;;;;;58.92;33.70;;;;;;;-1.52;80.04;100408.38;5039115;28;20410;-81
2021/12/23 09:33:16;;;;;;;59.28;34.50;;;;;;;-1.68;81.91;100411.91;5041742;28;25108;-79
2021/12/23 09:35:41;;;;;;;54.40;33.80;;;;;;;-1.71;81.70;100406.88;5038709;28;20405;-80
2021/12/23 09:38:08;;;;;;;59.37;33.57;;;;;;;-1.66;82.47;100401.91;5042973;28;20911;-79
2021/12/23 09:40:34;;;;;;;54.72;32.63;;;;;;;-1.55;81.74;100404.25;5050526;28;20395;-79
2021/12/23 09:43:01;;;;;;;52.60;33.88;;;;;;;-1.61;81.71;100391.59;5039266;28;20414;-79
2021/12/23 09:45:28;;;;;;;56.42;34.17;;;;;;;-1.55;81.72;100396.28;5045437;28;20394;-79
2021/12/23 09:47:56;;;;;;;55.38;33.08;;;;;;;-1.57;81.67;100393.75;5041476;28;20457;-79
2021/12/23 09:50:23;;;;;;;56.85;35.45;;;;;;;-1.67;82.84;100382.47;5041730;28;20434;-79
2021/12/23 09:52:51;;;;;;;57.63;33.63;;;;;;;-1.51;82.77;100389.59;5044303;28;20464;-79
2021/12/23 09:55:21;;;;;;;60.65;34.63;;;;;;;-1.42;82.17;100377.13;5047666;28;20504;-80
2021/12/23 09:57:49;;;;;;;63.03;35.83;;;;;;;-1.54;82.39;100378.47;5034825;28;20526;-79
2021/12/23 10:00:16;;;;;;;59.88;35.65;;;;;;;-1.65;82.82;100387.66;5039480;28;20387;-80
2021/12/23 10:02:43;;;;;;;61.05;35.65;;;;;;;-1.58;82.84;100388.59;5041408;28;20481;-79
2021/12/23 10:05:11;;;;;;;62.88;35.47;;;;;;;-1.52;83.35;100373.84;5048534;28;20891;-79
2021/12/23 10:07:37;;;;;;;59.17;34.80;;;;;;;-1.31;83.04;100387.38;5038851;28;20430;-79
2021/12/23 10:10:14;;;;;;;63.95;36.47;;;;;;;-1.23;82.71;100380.25;5042134;28;20403;-79
2021/12/23 10:30:16;;;;;;;60.40;35.83;;;;;;;-0.22;79.54;100380.22;5045138;28;25151;-78
2021/12/23 10:32:54;;;;;;;58.65;34.13;;;;;;;-0.30;80.21;100380.28;5036472;28;20401;-78
2021/12/23 10:38:36;;;;;;;63.00;36.33;;;;;;;-0.47;81.25;100363.59;5036979;28;25101;-77
2021/12/23 10:41:11;;;;;;;68.07;37.80;;;;;;;-0.37;81.09;100358.03;5045437;28;20403;-78
2021/12/23 10:43:41;;;;;;;62.47;37.85;;;;;;;-0.31;80.81;100360.81;5043140;28;20493;-79
2021/12/23 10:46:16;;;;;;;65.95;37.58;;;;;;;-0.25;80.73;100349.44;5044692;28;20392;-79
2021/12/23 10:48:55;;;;;;;69.65;37.80;;;;;;;-0.33;81.23;100346.84;5036870;28;20459;-78
2021/12/23 10:51:21;;;;;;;639.42;78.78;;;;;;;-0.31;81.35;100339.50;5044080;28;20471;-79
2021/12/23 10:59:18;;;;;;;67.60;39.47;;;;;;;-0.20;81.02;100336.41;5040021;28;20800;-79
2021/12/23 11:02:15;;;;;;;65.68;36.75;;;;;;;-0.20;81.14;100333.75;5040553;28;20895;-79
2021/12/23 11:05:20;;;;;;;64.50;37.88;;;;;;;-0.17;81.37;100327.25;5043176;28;20430;-79
2021/12/23 11:07:58;;;;;;;64.72;38.30;;;;;;;-0.15;81.87;100306.59;5039946;28;20504;-79
2021/12/23 11:27:48;;;;;;;61.00;36.85;;;;;;;0.66;80.86;100269.25;5039187;28;20489;-78
2021/12/23 11:31:32;;;;;;;64.82;39.08;;;;;;;0.67;79.97;100259.41;5044070;28;20397;-78
2021/12/23 11:41:07;;;;;;;65.38;37.85;;;;;;;0.66;80.71;100229.25;5033212;28;20399;-78
2021/12/23 11:43:50;;;;;;;67.57;38.50;;;;;;;0.64;81.44;100217.13;5039788;28;20409;-78
2021/12/23 11:46:47;;;;;;;63.85;36.47;;;;;;;0.65;81.47;100210.78;5037474;28;20431;-78
2021/12/23 11:49:13;;;;;;;67.13;38.38;;;;;;;0.68;81.20;100213.09;5037974;28;25174;-77
2021/12/23 11:51:53;;;;;;;71.93;39.67;;;;;;;0.71;81.83;100218.03;5046883;28;20400;-77
2021/12/23 11:54:41;;;;;;;74.15;39.50;;;;;;;0.88;81.77;100217.63;5044555;28;25178;-77
2021/12/23 11:57:14;;;;;;;77.20;40.40;;;;;;;1.08;81.36;100203.69;5041699;28;25113;-77
2021/12/23 11:59:44;;;;;;;78.45;40.40;;;;;;;1.32;80.90;100201.44;5043800;28;20472;-77
2021/12/23 12:02:16;;;;;;;73.33;39.53;;;;;;;1.43;80.43;100190.25;5039656;28;20395;-77
2021/12/23 12:04:42;;;;;;;72.03;38.63;;;;;;;1.49;80.38;100184.16;5041718;28;20416;-78
2021/12/23 12:07:19;;;;;;;68.38;36.88;;;;;;;1.48;80.03;100171.00;5052339;28;20402;-78
2021/12/23 12:09:59;;;;;;;69.85;38.60;;;;;;;1.42;80.57;100161.91;5049638;28;20397;-78
2021/12/23 12:12:26;;;;;;;141.90;43.03;;;;;;;1.56;80.01;100155.66;5038393;28;20504;-78
2021/12/23 12:14:55;;;;;;;73.90;39.05;;;;;;;1.57;80.09;100145.81;5043506;28;20391;-78